Time;durP1;ratioP1;P1;durP2;ratioP2;P2;SDS_P1;SDS_P2;PMS_P1;PMS_P2;Temp;Humidity;BMP_temperature;BMP_pressure;BME280_temperature;BME280_humidity;BME280_pressure;Samples;Min_cycle;Max_cycle;Signal;HPM_P1;HPM_P2
2021/12/10 00:00:52;;;;;;;;;1.67;1.67;;;;;9.19;65.67;98917.19;2052195;28;48720;-60
2021/12/10 00:02:02;;;;;;;;;1.50;1.50;;;;;9.19;65.58;98911.88;2043765;28;47744;-61
2021/12/10 00:03:06;;;;;;;;;1.00;1.00;;;;;9.18;66.19;98910.16;2055275;28;48278;-61
2021/12/10 00:04:10;;;;;;;;;1.00;1.00;;;;;9.18;65.76;98904.03;2058261;28;48421;-62
2021/12/10 00:05:10;;;;;;;;;2.00;2.00;;;;;9.17;65.66;98894.38;2067519;28;47650;-61
2021/12/10 00:06:17;;;;;;;;;1.67;1.67;;;;;9.16;65.69;98892.66;2061648;28;47078;-61
2021/12/10 00:07:24;;;;;;;;;2.00;1.00;;;;;9.16;65.75;98884.72;2064510;28;47545;-62
2021/12/10 00:08:28;;;;;;;;;1.00;1.00;;;;;9.14;65.75;98885.59;2052454;28;48189;-62
2021/12/10 00:09:34;;;;;;;;;4.50;3.75;;;;;9.16;65.85;98871.47;2054543;28;47562;-61
2021/12/10 00:10:39;;;;;;;;;1.75;1.75;;;;;9.16;65.81;98864.41;2062054;28;48223;-61
2021/12/10 00:11:52;;;;;;;;;1.00;1.00;;;;;9.16;65.78;98852.94;2059461;28;48159;-61
2021/12/10 00:12:53;;;;;;;;;1.00;1.00;;;;;9.17;65.81;98850.22;2064235;28;48115;-64
2021/12/10 00:13:55;;;;;;;;;1.00;1.00;;;;;9.16;65.76;98847.66;2066736;28;47920;-61
2021/12/10 00:14:55;;;;;;;;;1.00;1.00;;;;;9.16;65.79;98839.72;2065280;28;46772;-60
2021/12/10 00:15:56;;;;;;;;;1.00;1.00;;;;;9.16;65.91;98834.44;2060206;28;47326;-62
2021/12/10 00:16:59;;;;;;;;;1.50;1.50;;;;;9.16;65.78;98826.50;2062154;28;47104;-62
2021/12/10 00:18:04;;;;;;;;;1.00;1.00;;;;;9.14;65.80;98822.09;2059409;28;47229;-61
2021/12/10 00:20:16;;;;;;;;;0.00;0.00;;;;;9.14;65.78;98805.34;2061428;28;47483;-60
2021/12/10 00:21:17;;;;;;;;;1.25;1.25;;;;;9.14;65.85;98808.00;2060951;28;47358;-62
2021/12/10 00:22:27;;;;;;;;;1.00;1.00;;;;;9.14;65.97;98808.88;2060633;28;47749;-60
2021/12/10 00:23:30;;;;;;;;;3.50;1.25;;;;;9.15;65.95;98809.75;2058904;28;45314;-61
2021/12/10 00:24:31;;;;;;;;;1.25;1.25;;;;;9.14;65.74;98792.13;2061770;28;47599;-62
2021/12/10 00:25:37;;;;;;;;;0.25;0.25;;;;;9.14;65.93;98790.34;2061504;28;48459;-62
2021/12/10 00:26:38;;;;;;;;;1.00;1.00;;;;;9.14;65.74;98784.19;2060203;28;47315;-61
2021/12/10 00:27:39;;;;;;;;;1.75;1.75;;;;;9.14;65.66;98782.41;2061843;28;47818;-60
2021/12/10 00:28:40;;;;;;;;;1.00;1.00;;;;;9.15;65.60;98775.34;2062978;28;47090;-61
2021/12/10 00:29:48;;;;;;;;;1.25;1.25;;;;;9.14;65.81;98765.66;2061345;28;48528;-61
2021/12/10 00:31:06;;;;;;;;;2.75;1.25;;;;;9.14;66.03;98763.88;2061083;28;48855;-61
2021/12/10 00:32:17;;;;;;;;;1.75;1.00;;;;;9.13;65.72;98751.56;2060690;28;48566;-62
2021/12/10 00:33:21;;;;;;;;;1.00;1.00;;;;;9.13;65.69;98737.50;2062760;28;47425;-62
2021/12/10 00:34:27;;;;;;;;;1.00;1.00;;;;;9.13;65.87;98729.56;2060782;28;47313;-61
2021/12/10 00:35:30;;;;;;;;;2.75;1.75;;;;;9.13;66.00;98732.19;2063401;28;47422;-60
2021/12/10 00:36:33;;;;;;;;;0.75;0.75;;;;;9.13;65.81;98730.41;2067545;28;47396;-61
2021/12/10 00:37:34;;;;;;;;;0.75;0.25;;;;;9.13;65.93;98727.75;2067262;28;47569;-61
2021/12/10 00:38:35;;;;;;;;;1.00;1.00;;;;;9.13;65.88;98727.75;2063150;28;47635;-61
2021/12/10 00:39:41;;;;;;;;;1.00;1.00;;;;;9.13;66.13;98716.31;2061235;28;47866;-61
2021/12/10 00:40:42;;;;;;;;;1.00;1.00;;;;;9.12;66.08;98712.81;2065554;28;47766;-61
2021/12/10 00:41:43;;;;;;;;;1.00;1.00;;;;;9.12;65.89;98717.25;2067180;28;47699;-61
2021/12/10 00:42:44;;;;;;;;;0.50;0.50;;;;;9.12;66.10;98712.81;2057426;28;48545;-60
2021/12/10 00:43:45;;;;;;;;;0.33;0.33;;;;;9.12;65.88;98728.69;2067911;28;47280;-60
2021/12/10 00:44:45;;;;;;;;;0.00;0.00;;;;;9.13;65.89;98734.84;2063996;28;45413;-61
2021/12/10 00:45:46;;;;;;;;;1.00;1.00;;;;;9.13;65.98;98735.69;2060476;28;46047;-61
2021/12/10 00:46:47;;;;;;;;;1.00;0.00;;;;;9.13;65.78;98721.63;2064093;28;47289;-61
2021/12/10 00:47:49;;;;;;;;;0.00;0.00;;;;;9.14;65.98;98728.63;2062265;28;47392;-60
2021/12/10 00:48:50;;;;;;;;;0.00;0.00;;;;;9.13;66.06;98741.00;2063846;28;47897;-61
2021/12/10 00:49:51;;;;;;;;;1.00;1.00;;;;;9.14;66.07;98733.91;2061967;28;47017;-61
2021/12/10 00:50:55;;;;;;;;;0.00;0.00;;;;;9.14;65.76;98726.84;2062203;28;45536;-61
2021/12/10 00:51:56;;;;;;;;;0.00;0.00;;;;;9.14;65.84;98724.19;2057194;28;46235;-61
2021/12/10 00:52:57;;;;;;;;;1.67;1.00;;;;;9.14;65.76;98715.38;2064436;28;48387;-61
2021/12/10 00:53:57;;;;;;;;;0.00;0.00;;;;;9.12;66.10;98709.31;2060667;28;47229;-61
2021/12/10 00:54:58;;;;;;;;;2.00;1.00;;;;;9.12;65.92;98709.31;2063276;28;47992;-62
2021/12/10 00:55:58;;;;;;;;;0.33;0.33;;;;;9.12;65.91;98693.44;2059776;28;48134;-60
2021/12/10 00:56:59;;;;;;;;;1.33;0.00;;;;;9.11;65.91;98681.16;2063796;28;48110;-61
2021/12/10 00:58:01;;;;;;;;;0.00;0.00;;;;;9.11;65.98;98674.06;2061318;28;47896;-60
2021/12/10 00:59:02;;;;;;;;;0.00;0.00;;;;;9.11;66.03;98683.78;2064653;28;47190;-59
2021/12/10 01:00:12;;;;;;;;;0.00;0.00;;;;;9.10;66.00;98685.59;2060821;28;47498;-60
2021/12/10 01:01:25;;;;;;;;;0.50;0.50;;;;;9.10;66.12;98676.78;2062546;28;48426;-59
2021/12/10 01:02:26;;;;;;;;;1.00;1.00;;;;;9.09;65.85;98678.56;2061156;28;47348;-60
2021/12/10 01:03:37;;;;;;;;;0.00;0.00;;;;;9.09;65.76;98668.00;2064837;28;48437;-60
2021/12/10 01:04:43;;;;;;;;;0.00;0.00;;;;;9.08;65.91;98668.94;2064294;28;48389;-61
2021/12/10 01:05:48;;;;;;;;;1.00;1.00;;;;;9.07;66.18;98664.56;2062765;28;47586;-61
2021/12/10 01:06:50;;;;;;;;;0.00;0.00;;;;;9.07;65.87;98642.53;2063985;28;48295;-61
2021/12/10 01:07:51;;;;;;;;;1.00;1.00;;;;;9.05;65.99;98645.28;2061446;28;45495;-59
2021/12/10 01:08:57;;;;;;;;;0.00;0.00;;;;;9.05;65.90;98633.84;2061933;28;48390;-60
2021/12/10 01:10:00;;;;;;;;;1.00;1.00;;;;;9.05;65.91;98633.84;2056930;28;47454;-60
2021/12/10 01:11:24;;;;;;;;;0.00;0.00;;;;;9.03;65.69;98636.56;2060226;28;47261;-61
2021/12/10 01:12:37;;;;;;;;;0.00;0.00;;;;;9.03;65.87;98635.69;2060005;28;47446;-60
2021/12/10 01:13:42;;;;;;;;;0.00;0.00;;;;;9.02;65.89;98621.63;2059300;28;47467;-60
2021/12/10 01:15:34;;;;;;;;;0.00;0.00;;;;;9.02;66.00;98626.03;2063618;28;46941;-60
2021/12/10 01:27:24;;;;;;;;;0.00;0.00;;;;;8.97;66.07;98585.72;2063582;28;46970;-59
2021/12/10 01:28:24;;;;;;;;;0.00;0.00;;;;;8.97;66.24;98586.56;2059001;28;48043;-60
2021/12/10 01:29:31;;;;;;;;;0.00;0.00;;;;;8.96;66.56;98584.84;2064770;28;47065;-60
2021/12/10 01:30:37;;;;;;;;;0.00;0.00;;;;;8.96;66.14;98584.00;2060434;28;47378;-70
2021/12/10 01:31:38;;;;;;;;;0.00;0.00;;;;;8.94;66.35;98578.78;2060167;28;47467;-61
2021/12/10 01:32:48;;;;;;;;;1.00;0.00;;;;;8.95;66.03;98583.16;2063797;28;46963;-61
2021/12/10 01:33:52;;;;;;;;;1.00;1.00;;;;;8.95;66.58;98577.84;2061974;28;46484;-61
2021/12/10 01:34:53;;;;;;;;;0.00;0.00;;;;;8.95;66.28;98562.00;2062214;28;47263;-61
2021/12/10 01:35:56;;;;;;;;;0.00;0.00;;;;;8.95;66.18;98569.91;2061191;28;47326;-62
2021/12/10 01:36:57;;;;;;;;;0.00;0.00;;;;;8.94;66.14;98589.38;2063041;28;47197;-61
2021/12/10 01:37:58;;;;;;;;;0.00;0.00;;;;;8.94;66.43;98570.84;2060687;28;48466;-60
2021/12/10 01:38:59;;;;;;;;;0.00;0.00;;;;;8.93;66.39;98570.94;2064033;28;47189;-60
2021/12/10 01:40:00;;;;;;;;;0.00;0.00;;;;;8.94;66.30;98573.50;2060269;28;45949;-60
2021/12/10 01:41:06;;;;;;;;;0.00;0.00;;;;;8.94;66.33;98567.34;2060982;28;47900;-60
2021/12/10 01:42:47;;;;;;;;;0.00;0.00;;;;;8.92;66.39;98562.16;2061312;28;46996;-59
2021/12/10 01:43:39;;;;;;;;;0.00;0.00;;;;;8.92;66.34;98550.72;2060568;28;47460;-61
2021/12/10 01:44:46;;;;;;;;;2.50;1.00;;;;;8.91;66.53;98557.78;2063477;28;47414;-60
2021/12/10 01:45:48;;;;;;;;;0.00;0.00;;;;;8.91;66.35;98549.00;2060109;28;46341;-63
2021/12/10 01:46:48;;;;;;;;;0.50;0.50;;;;;8.91;66.09;98549.84;2063435;28;48332;-62
2021/12/10 01:48:01;;;;;;;;;0.00;0.00;;;;;8.92;66.45;98545.41;2058052;28;47410;-61
2021/12/10 01:49:05;;;;;;;;;0.75;0.75;;;;;8.90;66.53;98545.50;2055614;28;45489;-61
2021/12/10 01:50:07;;;;;;;;;0.00;0.00;;;;;8.90;66.45;98542.84;2053400;28;48315;-61
2021/12/10 01:51:11;;;;;;;;;1.00;0.00;;;;;8.90;66.64;98542.84;2061109;28;47608;-60
2021/12/10 01:52:14;;;;;;;;;0.00;0.00;;;;;8.91;66.52;98533.13;2058423;28;47322;-60
2021/12/10 01:53:17;;;;;;;;;1.00;0.00;;;;;8.90;66.55;98550.78;2063981;28;48243;-62
2021/12/10 01:54:27;;;;;;;;;1.00;1.00;;;;;8.89;66.59;98532.31;2062197;28;47693;-62
2021/12/10 01:55:31;;;;;;;;;0.00;0.00;;;;;8.88;66.69;98527.97;2063987;28;47225;-59
2021/12/10 01:56:34;;;;;;;;;0.00;0.00;;;;;8.87;66.63;98532.41;2059991;28;47732;-61
2021/12/10 01:57:37;;;;;;;;;0.00;0.00;;;;;8.86;66.55;98522.75;2065127;28;47457;-61
2021/12/10 01:58:38;;;;;;;;;0.00;0.00;;;;;8.86;66.63;98525.41;2063928;28;47472;-61
2021/12/10 01:59:42;;;;;;;;;0.25;0.25;;;;;8.87;66.71;98526.25;2061925;28;48246;-61
2021/12/10 02:00:54;;;;;;;;;1.00;0.00;;;;;8.88;66.67;98518.25;2059151;28;48271;-60
2021/12/10 02:01:58;;;;;;;;;0.00;0.00;;;;;8.88;66.97;98522.69;2058269;28;45860;-61
2021/12/10 02:02:59;;;;;;;;;0.00;0.00;;;;;8.88;66.71;98530.59;2063118;28;48664;-61
2021/12/10 02:04:04;;;;;;;;;0.00;0.00;;;;;8.87;66.69;98532.41;2060424;28;47270;-61
2021/12/10 02:05:06;;;;;;;;;0.00;0.00;;;;;8.87;66.71;98540.34;2064332;28;47196;-61
2021/12/10 02:06:08;;;;;;;;;0.50;0.50;;;;;8.88;66.94;98527.97;2060755;28;47072;-61
2021/12/10 02:07:11;;;;;;;;;2.25;0.25;;;;;8.89;67.16;98534.97;2063599;28;46086;-61
2021/12/10 02:08:11;;;;;;;;;0.25;0.25;;;;;8.89;66.87;98532.31;2057831;28;47589;-60
2021/12/10 02:09:13;;;;;;;;;1.00;1.00;;;;;8.89;67.03;98527.03;2063692;28;48593;-60
2021/12/10 02:10:17;;;;;;;;;0.75;0.75;;;;;8.90;67.08;98534.06;2059246;28;48408;-60
2021/12/10 02:11:19;;;;;;;;;0.75;0.75;;;;;8.89;67.08;98527.88;2061608;28;47601;-61
2021/12/10 02:12:20;;;;;;;;;1.00;1.00;;;;;8.89;67.21;98527.88;2060904;28;47008;-61
2021/12/10 02:13:21;;;;;;;;;1.00;1.00;;;;;8.90;67.14;98523.50;2065951;28;48600;-60
2021/12/10 02:14:22;;;;;;;;;1.00;1.00;;;;;8.89;67.09;98521.75;2058793;28;47783;-60
2021/12/10 02:15:26;;;;;;;;;0.00;0.00;;;;;8.89;67.12;98512.00;2061024;28;47500;-62
2021/12/10 02:16:27;;;;;;;;;1.00;0.25;;;;;8.90;66.96;98507.63;2058687;28;47367;-60
2021/12/10 02:17:34;;;;;;;;;1.00;1.00;;;;;8.91;67.13;98501.38;2064515;28;48177;-61
2021/12/10 02:18:35;;;;;;;;;1.00;1.00;;;;;8.92;67.15;98498.66;2061949;28;47164;-60
2021/12/10 02:19:36;;;;;;;;;0.33;0.33;;;;;8.92;66.99;98503.94;2062734;28;47557;-60
2021/12/10 02:20:49;;;;;;;;;0.00;0.00;;;;;8.93;67.17;98508.31;2059051;28;48174;-60
2021/12/10 02:21:49;;;;;;;;;1.25;1.25;;;;;8.94;67.05;98514.44;2049699;28;47005;-61
2021/12/10 02:22:51;;;;;;;;;0.33;0.33;;;;;8.95;67.23;98510.88;2053313;28;47005;-60
2021/12/10 02:23:57;;;;;;;;;1.00;1.00;;;;;8.95;67.12;98502.94;2061529;28;47242;-60
2021/12/10 02:24:58;;;;;;;;;1.00;1.00;;;;;8.95;67.15;98498.50;2053934;28;47392;-60
2021/12/10 02:26:01;;;;;;;;;1.00;1.00;;;;;8.97;67.06;98491.34;2053180;28;47965;-60
2021/12/10 02:27:05;;;;;;;;;0.50;0.50;;;;;8.97;67.19;98493.13;2063410;28;47383;-60
2021/12/10 02:28:08;;;;;;;;;1.50;1.50;;;;;8.97;67.04;98488.69;2058816;28;47492;-60
2021/12/10 02:29:10;;;;;;;;;2.00;0.75;;;;;8.98;66.94;98476.31;2063364;28;47961;-60
2021/12/10 02:30:13;;;;;;;;;1.00;1.00;;;;;8.96;66.98;98476.41;2060476;28;48335;-60
2021/12/10 02:31:14;;;;;;;;;3.25;1.00;;;;;8.99;67.21;98480.69;2060840;28;46924;-61
2021/12/10 02:32:15;;;;;;;;;0.00;0.00;;;;;8.98;67.06;98471.03;2061624;28;47263;-61
2021/12/10 02:33:16;;;;;;;;;1.00;1.00;;;;;8.98;67.21;98469.25;2070384;28;46762;-60
2021/12/10 02:34:18;;;;;;;;;1.00;1.00;;;;;9.00;67.25;98469.16;2068413;28;47241;-61
2021/12/10 02:35:19;;;;;;;;;1.00;1.00;;;;;8.99;67.35;98478.88;2070567;28;47203;-69
2021/12/10 02:36:19;;;;;;;;;0.00;0.00;;;;;9.00;67.17;98474.44;2066110;28;49785;-61
2021/12/10 02:37:21;;;;;;;;;0.33;0.33;;;;;9.00;67.05;98472.66;2069805;28;47590;-60
2021/12/10 02:38:22;;;;;;;;;1.00;1.00;;;;;9.01;67.13;98478.81;2068248;28;46417;-61
2021/12/10 02:39:26;;;;;;;;;1.50;1.00;;;;;9.02;67.28;98477.88;2070580;28;47906;-61
2021/12/10 02:40:28;;;;;;;;;1.00;1.00;;;;;9.00;67.23;98467.38;2065354;28;47868;-60
2021/12/10 02:41:31;;;;;;;;;1.00;1.00;;;;;9.01;67.03;98473.50;2061215;28;47376;-59
2021/12/10 02:42:31;;;;;;;;;1.00;1.00;;;;;9.02;67.28;98462.88;2061880;28;47460;-60
2021/12/10 02:43:32;;;;;;;;;1.00;1.00;;;;;9.02;67.33;98457.59;2068825;28;47120;-60
2021/12/10 02:44:33;;;;;;;;;1.00;1.00;;;;;9.02;67.26;98457.59;2068910;28;47168;-61
2021/12/10 02:45:34;;;;;;;;;1.00;1.00;;;;;9.03;67.20;98455.78;2068961;28;46860;-61
2021/12/10 02:46:36;;;;;;;;;1.50;1.50;;;;;9.03;67.15;98455.78;2067114;28;47374;-61
2021/12/10 02:47:37;;;;;;;;;2.00;1.00;;;;;9.02;67.27;98436.44;2068834;28;47243;-60
2021/12/10 02:48:37;;;;;;;;;2.33;2.33;;;;;9.02;67.17;98447.00;2066539;28;47855;-60
2021/12/10 02:49:38;;;;;;;;;4.00;1.00;;;;;9.02;67.27;98428.50;2060417;28;45692;-60
2021/12/10 02:50:39;;;;;;;;;1.33;1.33;;;;;9.03;67.32;98429.34;2060586;28;45592;-60
2021/12/10 02:51:40;;;;;;;;;1.00;1.00;;;;;9.03;67.31;98431.97;2067366;28;47765;-60
2021/12/10 02:52:41;;;;;;;;;2.00;2.00;;;;;9.03;67.23;98432.84;2065696;28;47269;-62
2021/12/10 02:53:45;;;;;;;;;1.00;1.00;;;;;9.04;67.34;98437.19;2064793;28;47355;-62
2021/12/10 02:54:45;;;;;;;;;1.00;1.00;;;;;9.04;67.25;98439.84;2069705;28;47782;-62
2021/12/10 02:55:46;;;;;;;;;2.00;2.00;;;;;9.05;67.34;98441.53;2066308;28;47772;-61
2021/12/10 02:56:46;;;;;;;;;3.00;1.00;;;;;9.06;67.29;98434.47;2068709;28;47174;-61
2021/12/10 02:57:55;;;;;;;;;0.67;0.67;;;;;9.06;67.27;98435.31;2067811;28;47257;-61
2021/12/10 02:58:59;;;;;;;;;0.25;0.25;;;;;9.06;67.25;98426.53;2070791;28;47685;-61
2021/12/10 02:59:59;;;;;;;;;1.75;1.75;;;;;9.07;67.36;98426.44;2066171;28;47232;-61
2021/12/10 03:01:25;;;;;;;;;1.00;1.00;;;;;9.07;67.33;98428.25;2067303;28;46958;-61
2021/12/10 03:02:27;;;;;;;;;1.50;1.50;;;;;9.08;67.53;98427.31;2055686;28;47597;-61
2021/12/10 03:03:28;;;;;;;;;1.00;1.00;;;;;9.08;67.37;98428.16;2071240;28;47235;-61
2021/12/10 03:04:31;;;;;;;;;0.25;0.25;;;;;9.10;67.30;98426.28;2066566;28;47205;-61
2021/12/10 03:05:31;;;;;;;;;2.00;1.00;;;;;9.10;67.47;98428.06;2069923;28;47877;-62
2021/12/10 03:06:40;;;;;;;;;0.50;0.50;;;;;9.11;67.39;98424.50;2067794;28;47754;-61
2021/12/10 03:07:41;;;;;;;;;1.75;1.00;;;;;9.12;67.56;98428.84;2067600;28;47285;-61
2021/12/10 03:08:45;;;;;;;;;0.25;0.25;;;;;9.12;67.37;98429.69;2066968;28;47413;-61
2021/12/10 03:09:49;;;;;;;;;0.25;0.25;;;;;9.14;67.49;98426.97;2063920;28;47362;-61
2021/12/10 03:10:50;;;;;;;;;1.00;1.00;;;;;9.13;67.46;98428.75;2065685;28;47569;-61
2021/12/10 03:11:53;;;;;;;;;0.67;0.67;;;;;9.14;67.37;98421.66;2066546;28;47364;-61
2021/12/10 03:12:54;;;;;;;;;0.50;0.50;;;;;9.15;67.56;98423.41;2070137;28;47670;-60
2021/12/10 03:13:56;;;;;;;;;1.00;1.00;;;;;9.16;67.67;98416.31;2069398;28;47700;-62
2021/12/10 03:14:56;;;;;;;;;1.00;1.00;;;;;9.16;67.64;98414.53;2069917;28;47848;-61
2021/12/10 03:15:57;;;;;;;;;0.00;0.00;;;;;9.18;67.54;98417.09;2066901;28;47361;-62
2021/12/10 03:17:00;;;;;;;;;0.00;0.00;;;;;9.17;67.63;98418.88;2067812;28;46325;-59
2021/12/10 03:18:05;;;;;;;;;0.00;0.00;;;;;9.19;67.66;98416.16;2067659;28;47385;-61
2021/12/10 03:19:06;;;;;;;;;0.00;0.00;;;;;9.21;67.69;98414.28;2069678;28;45993;-60
2021/12/10 03:20:10;;;;;;;;;0.00;0.00;;;;;9.20;67.71;98421.38;2066391;28;47314;-60
2021/12/10 03:21:11;;;;;;;;;0.25;0.25;;;;;9.21;67.68;98422.22;2067570;28;46312;-61
2021/12/10 03:22:12;;;;;;;;;0.25;0.25;;;;;9.22;67.93;98430.06;2063937;28;47652;-61
2021/12/10 03:23:13;;;;;;;;;0.00;0.00;;;;;9.23;68.09;98434.44;2070033;28;47528;-61
2021/12/10 03:24:17;;;;;;;;;1.00;1.00;;;;;9.23;67.83;98430.94;2067251;28;47833;-61
2021/12/10 03:25:18;;;;;;;;;0.50;0.50;;;;;9.23;67.78;98426.50;2069248;28;47582;-61
2021/12/10 03:26:21;;;;;;;;;0.00;0.00;;;;;9.23;67.74;98428.28;2065646;28;47959;-61
2021/12/10 03:27:22;;;;;;;;;0.00;0.00;;;;;9.24;67.74;98427.34;2070310;28;47343;-61
2021/12/10 03:28:22;;;;;;;;;0.00;0.00;;;;;9.25;67.79;98415.81;2065066;28;47297;-61
2021/12/10 03:29:26;;;;;;;;;0.00;0.00;;;;;9.26;67.94;98425.47;2070933;28;48323;-61
2021/12/10 03:30:30;;;;;;;;;0.00;0.00;;;;;9.27;67.97;98425.38;2065949;28;47921;-62
2021/12/10 03:31:30;;;;;;;;;0.00;0.00;;;;;9.28;68.05;98423.63;2062894;28;47688;-61
2021/12/10 03:32:32;;;;;;;;;0.33;0.33;;;;;9.30;68.02;98432.31;2069194;28;47704;-61
2021/12/10 03:33:33;;;;;;;;;0.00;0.00;;;;;9.31;67.97;98419.00;2069705;28;47470;-61
2021/12/10 03:34:34;;;;;;;;;0.00;0.00;;;;;9.32;67.97;98426.00;2065101;28;47220;-62
2021/12/10 03:35:41;;;;;;;;;0.00;0.00;;;;;9.33;67.99;98422.44;2067781;28;47128;-61
2021/12/10 03:36:45;;;;;;;;;0.00;0.00;;;;;9.33;67.98;98417.13;2068513;28;48185;-61
2021/12/10 03:37:46;;;;;;;;;0.00;0.00;;;;;9.35;68.00;98422.34;2068743;28;47840;-61
2021/12/10 03:38:48;;;;;;;;;0.00;0.00;;;;;9.35;68.25;98420.53;2068490;28;47910;-61
2021/12/10 03:39:50;;;;;;;;;0.00;0.00;;;;;9.36;68.18;98427.53;2067534;28;47048;-61
2021/12/10 03:40:51;;;;;;;;;1.00;1.00;;;;;9.38;68.28;98430.09;2066446;28;47276;-62
2021/12/10 03:41:55;;;;;;;;;0.00;0.00;;;;;9.38;68.10;98427.47;2066976;28;47818;-61
2021/12/10 03:42:58;;;;;;;;;0.00;0.00;;;;;9.38;68.16;98427.47;2070391;28;47660;-60
2021/12/10 03:43:59;;;;;;;;;0.25;0.00;;;;;9.39;68.33;98432.66;2066813;28;45520;-61
2021/12/10 03:44:59;;;;;;;;;0.00;0.00;;;;;9.39;68.24;98422.09;2070611;28;46952;-62
2021/12/10 03:46:01;;;;;;;;;0.67;0.67;;;;;9.40;68.19;98429.13;2064842;28;46978;-60
2021/12/10 03:47:04;;;;;;;;;2.00;1.00;;;;;9.41;68.34;98425.53;2067083;28;47292;-61
2021/12/10 03:48:10;;;;;;;;;0.00;0.00;;;;;9.42;68.51;98424.59;2068440;28;47029;-61
2021/12/10 03:49:11;;;;;;;;;0.00;0.00;;;;;9.42;68.48;98421.09;2066252;28;47467;-62
2021/12/10 03:50:25;;;;;;;;;0.00;0.00;;;;;9.45;68.47;98431.50;2065316;28;49310;-61
2021/12/10 03:51:26;;;;;;;;;0.00;0.00;;;;;9.45;68.20;98434.16;2068637;28;47376;-61
2021/12/10 03:52:26;;;;;;;;;1.00;1.00;;;;;9.46;68.37;98433.22;2065463;28;47285;-61
2021/12/10 03:53:27;;;;;;;;;0.00;0.00;;;;;9.47;68.41;98434.06;2069472;28;47232;-60
2021/12/10 03:54:27;;;;;;;;;1.00;1.00;;;;;9.48;68.33;98427.84;2064483;28;47389;-61
2021/12/10 03:55:28;;;;;;;;;0.00;0.00;;;;;9.49;68.65;98426.91;2069981;28;47540;-61
2021/12/10 03:56:32;;;;;;;;;2.50;0.25;;;;;9.49;68.55;98430.41;2063866;28;47266;-61
2021/12/10 03:57:33;;;;;;;;;1.75;0.75;;;;;9.51;68.62;98432.97;2069417;28;47219;-61
2021/12/10 03:58:33;;;;;;;;;1.00;1.00;;;;;9.52;68.58;98432.88;2066362;28;46807;-61
2021/12/10 03:59:36;;;;;;;;;0.00;0.00;;;;;9.53;68.82;98431.97;2068498;28;47297;-62
2021/12/10 04:00:45;;;;;;;;;0.00;0.00;;;;;9.55;68.70;98429.22;2069547;28;47665;-61
2021/12/10 04:01:49;;;;;;;;;0.00;0.00;;;;;9.55;68.71;98431.88;2068267;28;47747;-62
2021/12/10 04:02:51;;;;;;;;;1.00;1.00;;;;;9.57;69.00;98438.78;2068899;28;47765;-61
2021/12/10 04:03:53;;;;;;;;;0.00;0.00;;;;;9.56;68.71;98437.09;2065790;28;47490;-62
2021/12/10 04:04:53;;;;;;;;;0.00;0.00;;;;;9.58;69.12;98437.84;2068649;28;47577;-61
2021/12/10 04:05:54;;;;;;;;;1.00;1.00;;;;;9.61;68.92;98442.13;2064276;28;46241;-61
2021/12/10 04:06:56;;;;;;;;;0.50;0.50;;;;;9.62;68.94;98443.84;2068815;28;47105;-61
2021/12/10 04:07:58;;;;;;;;;0.00;0.00;;;;;9.62;69.17;98434.09;2069834;28;47200;-60
2021/12/10 04:09:00;;;;;;;;;0.00;0.00;;;;;9.63;68.98;98441.09;2068090;28;47461;-62
2021/12/10 04:10:01;;;;;;;;;1.00;0.25;;;;;9.65;69.14;98436.56;2064466;28;47457;-61
2021/12/10 04:11:02;;;;;;;;;0.67;0.67;;;;;9.67;69.27;98440.00;2068793;28;47467;-60
2021/12/10 04:12:03;;;;;;;;;0.25;0.25;;;;;9.68;69.08;98443.50;2064571;28;48076;-61
2021/12/10 04:13:05;;;;;;;;;0.00;0.00;;;;;9.70;69.31;98453.06;2069102;28;45626;-61
2021/12/10 04:14:06;;;;;;;;;0.00;0.00;;;;;9.71;69.18;98446.84;2065743;28;47053;-61
2021/12/10 04:15:08;;;;;;;;;1.00;1.00;;;;;9.73;69.01;98441.47;2069768;28;45235;-61
2021/12/10 04:16:09;;;;;;;;;1.50;0.75;;;;;9.74;69.18;98444.03;2059800;28;47342;-60
2021/12/10 04:17:09;;;;;;;;;1.00;1.00;;;;;9.75;69.18;98444.88;2061362;28;47364;-63
2021/12/10 04:18:11;;;;;;;;;0.33;0.33;;;;;9.76;69.50;98445.72;2069847;28;47168;-61
2021/12/10 04:19:13;;;;;;;;;0.50;0.50;;;;;9.77;69.22;98442.13;2069513;28;47462;-62
2021/12/10 04:20:14;;;;;;;;;0.00;0.00;;;;;9.79;68.96;98445.59;2063521;28;47687;-63
2021/12/10 04:21:16;;;;;;;;;0.75;0.50;;;;;9.81;69.08;98449.00;2068809;28;47708;-60
2021/12/10 04:22:19;;;;;;;;;0.00;0.00;;;;;9.82;69.04;98450.72;2070986;28;47358;-61
2021/12/10 04:23:22;;;;;;;;;1.00;1.00;;;;;9.83;69.02;98447.97;2069977;28;47533;-61
2021/12/10 04:24:24;;;;;;;;;0.25;0.25;;;;;9.84;69.31;98446.16;2069392;28;47249;-60
2021/12/10 04:25:26;;;;;;;;;0.75;0.75;;;;;9.84;69.19;98444.38;2064175;28;47219;-62
2021/12/10 04:26:28;;;;;;;;;1.00;1.00;;;;;9.86;69.07;98445.16;2062275;28;47257;-60
2021/12/10 04:27:28;;;;;;;;;0.00;0.00;;;;;9.87;69.23;98444.19;2067741;28;47105;-60
2021/12/10 04:28:29;;;;;;;;;2.33;1.33;;;;;9.87;69.13;98449.50;2070116;28;47246;-60
2021/12/10 04:29:30;;;;;;;;;0.00;0.00;;;;;9.90;69.28;98448.47;2066324;28;47477;-60
2021/12/10 04:30:35;;;;;;;;;1.00;1.00;;;;;9.90;69.10;98444.03;2070880;28;47552;-61
2021/12/10 04:31:37;;;;;;;;;0.25;0.25;;;;;9.92;69.32;98449.28;2068163;28;47839;-60
2021/12/10 04:32:38;;;;;;;;;0.50;0.50;;;;;9.93;69.44;98440.38;2069439;28;48066;-60
2021/12/10 04:33:39;;;;;;;;;1.00;1.00;;;;;9.94;69.28;98448.25;2067621;28;47866;-60
2021/12/10 04:34:40;;;;;;;;;2.00;2.00;;;;;9.95;69.22;98447.28;2065391;28;47197;-61
2021/12/10 04:35:41;;;;;;;;;1.33;1.00;;;;;9.95;69.25;98444.66;2069625;28;47096;-61
2021/12/10 04:36:42;;;;;;;;;1.00;1.00;;;;;9.98;69.35;98446.25;2069715;28;47499;-60
2021/12/10 04:37:42;;;;;;;;;2.00;1.00;;;;;9.99;69.38;98447.97;2069693;28;47631;-61
2021/12/10 04:38:43;;;;;;;;;0.67;0.67;;;;;9.99;69.29;98437.38;2067665;28;47500;-61
2021/12/10 04:39:46;;;;;;;;;1.00;1.00;;;;;10.00;69.17;98453.19;2065508;28;47087;-61
2021/12/10 04:40:49;;;;;;;;;2.00;1.75;;;;;10.01;69.29;98451.38;2070301;28;46812;-62
2021/12/10 04:41:50;;;;;;;;;2.00;0.75;;;;;10.03;69.08;98452.16;2069569;28;47742;-60
2021/12/10 04:42:52;;;;;;;;;3.33;2.00;;;;;10.05;69.04;98447.66;2061289;28;47212;-60
2021/12/10 04:43:52;;;;;;;;;1.00;1.00;;;;;10.05;69.34;98444.16;2058939;28;47794;-62
2021/12/10 04:44:56;;;;;;;;;2.00;2.00;;;;;10.07;69.42;98451.06;2065382;28;46047;-61
2021/12/10 04:45:58;;;;;;;;;2.00;2.00;;;;;10.07;69.13;98445.75;2069494;28;46293;-60
2021/12/10 04:46:58;;;;;;;;;2.50;2.25;;;;;10.08;69.20;98458.06;2069747;28;47160;-60
2021/12/10 04:47:59;;;;;;;;;2.00;2.00;;;;;10.09;69.44;98454.47;2069783;28;47774;-60
2021/12/10 04:49:12;;;;;;;;;3.33;2.33;;;;;10.08;69.42;98458.06;2066130;28;47290;-60
2021/12/10 04:50:16;;;;;;;;;1.75;1.25;;;;;10.10;69.23;98458.84;2068248;28;47442;-60
2021/12/10 04:51:20;;;;;;;;;2.50;1.75;;;;;10.09;69.19;98453.63;2068708;28;47426;-61
2021/12/10 04:52:22;;;;;;;;;2.25;2.00;;;;;10.10;69.67;98461.47;2069068;28;47513;-61
2021/12/10 04:53:23;;;;;;;;;4.00;2.00;;;;;10.10;69.22;98456.19;2069709;28;48469;-61
2021/12/10 04:54:25;;;;;;;;;1.00;1.00;;;;;10.10;69.42;98452.69;2067568;28;47610;-61
2021/12/10 04:55:26;;;;;;;;;2.00;2.00;;;;;10.10;69.17;98458.84;2070913;28;48071;-61
2021/12/10 04:56:28;;;;;;;;;1.50;1.50;;;;;10.11;69.27;98447.28;2065176;28;47549;-62
2021/12/10 04:57:29;;;;;;;;;1.00;1.00;;;;;10.13;69.36;98457.81;2068049;28;47645;-61
2021/12/10 04:58:30;;;;;;;;;3.00;1.00;;;;;10.14;68.86;98459.50;2066576;28;47254;-62
2021/12/10 04:59:35;;;;;;;;;1.75;1.75;;;;;10.14;69.28;98455.06;2066557;28;46969;-60
2021/12/10 05:00:43;;;;;;;;;1.50;1.50;;;;;10.16;69.33;98453.19;2069404;28;47383;-60
2021/12/10 05:01:45;;;;;;;;;2.00;2.00;;;;;10.16;69.17;98450.53;2068226;28;45313;-60
2021/12/10 05:02:46;;;;;;;;;3.75;2.75;;;;;10.18;69.35;98463.72;2070634;28;47909;-61
2021/12/10 05:03:47;;;;;;;;;2.50;1.75;;;;;10.18;69.78;98458.41;2068684;28;46151;-62
2021/12/10 05:04:48;;;;;;;;;3.00;2.25;;;;;10.18;69.13;98459.28;2067493;28;47673;-60
2021/12/10 05:05:48;;;;;;;;;2.00;2.00;;;;;10.19;69.26;98450.38;2069783;28;47479;-61
2021/12/10 05:06:50;;;;;;;;;3.33;2.67;;;;;10.21;69.00;98460.88;2070830;28;46112;-60
2021/12/10 05:07:50;;;;;;;;;4.00;3.00;;;;;10.21;69.28;98458.25;2070315;28;47182;-61
2021/12/10 05:08:51;;;;;;;;;2.00;2.00;;;;;10.22;69.06;98460.84;2068774;28;47555;-60
2021/12/10 05:09:51;;;;;;;;;2.00;2.00;;;;;10.23;69.12;98461.69;2066112;28;46829;-60
2021/12/10 05:10:51;;;;;;;;;2.67;2.67;;;;;10.25;69.08;98470.41;2067881;28;47669;-60
2021/12/10 05:11:53;;;;;;;;;2.00;2.00;;;;;10.24;69.18;98460.75;2070396;28;46967;-60
2021/12/10 05:12:55;;;;;;;;;3.25;2.00;;;;;10.24;69.11;98464.25;2069643;28;47380;-61